Terminal Aerodrome Forecast
Issued by NWS

Home | Current Version | Previous Version | Text Only | Print | Product List | Glossary On
Versions: 1 2 3 4 5 6 7 8 9 10 11 12
000
FTPA31 PHFO 251120
TAFHOG
TAF
PHOG 251120Z 2512/2612 03005KT P6SM SKC
     FM252000 03014KT P6SM FEW030 FEW050
     FM260500 03007KT P6SM FEW025 SCT050
      AMD LTD TO VIS AND WIND TIL 251600=

USA.gov is the U.S. government's official web portal to all federal, state and local government web resources and services.